sensor_id;sensor_type;location;lat;lon;timestamp;pressure;altitude;pressure_sealevel;temperature;humidity
30819;BME280;17546;42.674;23.284;2024-03-08T00:01:48;94773.41;;;13.11;46.58
30819;BME280;17546;42.674;23.284;2024-03-08T00:04:13;94751.63;;;12.62;46.84
30819;BME280;17546;42.674;23.284;2024-03-08T00:06:41;94755.56;;;12.89;46.47
30819;BME280;17546;42.674;23.284;2024-03-08T00:09:06;94754.19;;;13.13;46.46
30819;BME280;17546;42.674;23.284;2024-03-08T00:11:33;94739.50;;;12.59;46.89
30819;BME280;17546;42.674;23.284;2024-03-08T00:14:00;94761.03;;;12.31;47.43
30819;BME280;17546;42.674;23.284;2024-03-08T00:16:25;94754.59;;;12.81;46.51
30819;BME280;17546;42.674;23.284;2024-03-08T00:18:51;94770.25;;;12.78;46.70
30819;BME280;17546;42.674;23.284;2024-03-08T00:21:16;94739.91;;;12.86;46.51
30819;BME280;17546;42.674;23.284;2024-03-08T00:23:42;94741.00;;;12.60;47.07
30819;BME280;17546;42.674;23.284;2024-03-08T00:26:07;94765.06;;;13.11;46.25
30819;BME280;17546;42.674;23.284;2024-03-08T00:28:33;94742.50;;;12.73;46.93
30819;BME280;17546;42.674;23.284;2024-03-08T00:31:00;94749.19;;;13.06;46.35
30819;BME280;17546;42.674;23.284;2024-03-08T00:33:25;94755.22;;;13.10;46.09
30819;BME280;17546;42.674;23.284;2024-03-08T00:35:51;94732.38;;;12.70;46.84
30819;BME280;17546;42.674;23.284;2024-03-08T00:38:16;94757.19;;;12.56;46.93
30819;BME280;17546;42.674;23.284;2024-03-08T00:40:44;94746.88;;;12.34;47.50
30819;BME280;17546;42.674;23.284;2024-03-08T00:43:09;94753.47;;;13.07;46.48
30819;BME280;17546;42.674;23.284;2024-03-08T00:45:35;94722.78;;;12.71;46.85
30819;BME280;17546;42.674;23.284;2024-03-08T00:48:03;94739.00;;;12.55;47.36
30819;BME280;17546;42.674;23.284;2024-03-08T00:50:28;94754.94;;;12.55;47.40
30819;BME280;17546;42.674;23.284;2024-03-08T00:52:54;94717.75;;;12.64;46.82
30819;BME280;17546;42.674;23.284;2024-03-08T00:55:19;94701.91;;;12.47;47.21
30819;BME280;17546;42.674;23.284;2024-03-08T00:57:45;94714.41;;;12.76;47.12
30819;BME280;17546;42.674;23.284;2024-03-08T01:00:11;94715.19;;;12.77;47.05
30819;BME280;17546;42.674;23.284;2024-03-08T01:02:38;94716.38;;;11.84;48.65
30819;BME280;17546;42.674;23.284;2024-03-08T01:05:04;94716.84;;;12.33;47.85
30819;BME280;17546;42.674;23.284;2024-03-08T01:07:33;94726.81;;;12.70;47.55
30819;BME280;17546;42.674;23.284;2024-03-08T01:09:59;94705.03;;;12.04;48.15
30819;BME280;17546;42.674;23.284;2024-03-08T01:12:26;94701.25;;;12.07;48.59
30819;BME280;17546;42.674;23.284;2024-03-08T01:14:51;94718.63;;;12.19;48.27
30819;BME280;17546;42.674;23.284;2024-03-08T01:17:17;94706.66;;;12.58;47.26
30819;BME280;17546;42.674;23.284;2024-03-08T01:19:42;94725.91;;;12.39;48.26
30819;BME280;17546;42.674;23.284;2024-03-08T01:22:10;94698.47;;;12.13;47.91
30819;BME280;17546;42.674;23.284;2024-03-08T01:24:36;94705.50;;;12.25;48.11
30819;BME280;17546;42.674;23.284;2024-03-08T01:27:02;94691.59;;;12.31;47.94
30819;BME280;17546;42.674;23.284;2024-03-08T01:29:28;94689.03;;;12.44;47.60
30819;BME280;17546;42.674;23.284;2024-03-08T01:31:55;94711.47;;;12.52;47.87
30819;BME280;17546;42.674;23.284;2024-03-08T01:34:22;94704.78;;;12.02;48.80
30819;BME280;17546;42.674;23.284;2024-03-08T01:36:48;94693.38;;;12.23;48.27
30819;BME280;17546;42.674;23.284;2024-03-08T01:39:14;94714.78;;;12.39;48.08
30819;BME280;17546;42.674;23.284;2024-03-08T01:41:40;94725.84;;;12.61;47.85
30819;BME280;17546;42.674;23.284;2024-03-08T01:44:05;94718.91;;;11.70;49.41
30819;BME280;17546;42.674;23.284;2024-03-08T01:46:33;94692.59;;;12.28;47.87
30819;BME280;17546;42.674;23.284;2024-03-08T01:49:00;94709.94;;;12.56;47.74
30819;BME280;17546;42.674;23.284;2024-03-08T01:51:27;94694.38;;;12.25;47.63
30819;BME280;17546;42.674;23.284;2024-03-08T01:53:55;94685.09;;;12.11;47.72
30819;BME280;17546;42.674;23.284;2024-03-08T01:56:23;94694.66;;;12.22;47.58
30819;BME280;17546;42.674;23.284;2024-03-08T01:58:50;94663.00;;;12.47;46.86
30819;BME280;17546;42.674;23.284;2024-03-08T02:01:16;94674.59;;;12.51;46.92
30819;BME280;17546;42.674;23.284;2024-03-08T02:03:44;94706.00;;;12.93;46.51
30819;BME280;17546;42.674;23.284;2024-03-08T02:06:13;94707.66;;;13.13;46.22
30819;BME280;17546;42.674;23.284;2024-03-08T02:08:45;94684.72;;;13.01;45.79
30819;BME280;17546;42.674;23.284;2024-03-08T02:11:12;94707.09;;;12.79;46.39
30819;BME280;17546;42.674;23.284;2024-03-08T02:13:37;94687.53;;;13.01;45.73
30819;BME280;17546;42.674;23.284;2024-03-08T02:16:03;94692.19;;;13.23;45.90
30819;BME280;17546;42.674;23.284;2024-03-08T02:18:30;94688.44;;;12.63;46.42
30819;BME280;17546;42.674;23.284;2024-03-08T02:21:01;94699.06;;;12.58;46.40
30819;BME280;17546;42.674;23.284;2024-03-08T02:23:28;94685.56;;;12.91;45.79
30819;BME280;17546;42.674;23.284;2024-03-08T02:25:55;94717.44;;;13.31;45.80
30819;BME280;17546;42.674;23.284;2024-03-08T02:28:21;94716.19;;;13.32;45.65
30819;BME280;17546;42.674;23.284;2024-03-08T02:30:48;94715.38;;;13.37;45.83
30819;BME280;17546;42.674;23.284;2024-03-08T02:33:17;94695.22;;;13.26;45.95
30819;BME280;17546;42.674;23.284;2024-03-08T02:35:45;94718.38;;;13.45;46.10
30819;BME280;17546;42.674;23.284;2024-03-08T02:38:19;94697.28;;;13.14;45.95
30819;BME280;17546;42.674;23.284;2024-03-08T02:40:46;94725.31;;;12.69;46.31
30819;BME280;17546;42.674;23.284;2024-03-08T02:43:12;94690.06;;;12.94;45.43
30819;BME280;17546;42.674;23.284;2024-03-08T02:45:38;94690.31;;;13.01;45.19
30819;BME280;17546;42.674;23.284;2024-03-08T02:48:04;94719.69;;;13.38;44.93
30819;BME280;17546;42.674;23.284;2024-03-08T02:50:32;94695.72;;;13.30;44.85
30819;BME280;17546;42.674;23.284;2024-03-08T02:52:57;94690.88;;;12.83;43.97
30819;BME280;17546;42.674;23.284;2024-03-08T02:55:23;94695.91;;;12.90;43.39
30819;BME280;17546;42.674;23.284;2024-03-08T02:57:51;94713.72;;;13.17;44.02
30819;BME280;17546;42.674;23.284;2024-03-08T03:00:17;94716.44;;;13.29;44.01
30819;BME280;17546;42.674;23.284;2024-03-08T03:02:45;94713.91;;;13.36;43.64
30819;BME280;17546;42.674;23.284;2024-03-08T03:05:10;94727.31;;;13.32;43.77
30819;BME280;17546;42.674;23.284;2024-03-08T03:07:37;94718.22;;;13.32;42.79
30819;BME280;17546;42.674;23.284;2024-03-08T03:10:03;94702.16;;;13.08;42.59
30819;BME280;17546;42.674;23.284;2024-03-08T03:12:29;94727.25;;;13.38;42.71
30819;BME280;17546;42.674;23.284;2024-03-08T03:14:56;94715.03;;;12.47;42.83
30819;BME280;17546;42.674;23.284;2024-03-08T03:17:25;94726.94;;;13.00;42.21
30819;BME280;17546;42.674;23.284;2024-03-08T03:19:51;94715.59;;;12.98;42.41
30819;BME280;17546;42.674;23.284;2024-03-08T03:22:18;94727.44;;;13.04;42.13
30819;BME280;17546;42.674;23.284;2024-03-08T03:24:46;94704.22;;;12.96;42.52
30819;BME280;17546;42.674;23.284;2024-03-08T03:27:13;94736.03;;;13.00;42.75
30819;BME280;17546;42.674;23.284;2024-03-08T03:29:42;94715.81;;;13.06;42.27
30819;BME280;17546;42.674;23.284;2024-03-08T03:32:11;94729.00;;;12.94;42.38
30819;BME280;17546;42.674;23.284;2024-03-08T03:34:38;94711.50;;;12.40;42.23
30819;BME280;17546;42.674;23.284;2024-03-08T03:37:04;94703.66;;;12.50;42.06
30819;BME280;17546;42.674;23.284;2024-03-08T03:39:30;94737.91;;;12.81;42.03
30819;BME280;17546;42.674;23.284;2024-03-08T03:42:00;94749.03;;;12.81;42.29
30819;BME280;17546;42.674;23.284;2024-03-08T03:44:27;94727.25;;;12.85;41.94
30819;BME280;17546;42.674;23.284;2024-03-08T03:46:53;94737.81;;;12.98;41.50
30819;BME280;17546;42.674;23.284;2024-03-08T03:49:19;94753.31;;;12.82;41.52
30819;BME280;17546;42.674;23.284;2024-03-08T03:51:45;94744.44;;;12.89;41.97
30819;BME280;17546;42.674;23.284;2024-03-08T03:54:10;94739.84;;;12.22;41.90
30819;BME280;17546;42.674;23.284;2024-03-08T03:56:36;94740.97;;;12.72;41.31
30819;BME280;17546;42.674;23.284;2024-03-08T03:59:02;94733.16;;;12.65;41.47
30819;BME280;17546;42.674;23.284;2024-03-08T04:01:27;94738.81;;;13.00;41.05
30819;BME280;17546;42.674;23.284;2024-03-08T04:03:54;94768.44;;;12.92;41.03
30819;BME280;17546;42.674;23.284;2024-03-08T04:06:20;94740.91;;;12.83;40.52
30819;BME280;17546;42.674;23.284;2024-03-08T04:08:46;94769.94;;;12.93;40.74
30819;BME280;17546;42.674;23.284;2024-03-08T04:11:11;94763.56;;;13.10;40.32
30819;BME280;17546;42.674;23.284;2024-03-08T04:13:37;94750.50;;;12.93;40.64
30819;BME280;17546;42.674;23.284;2024-03-08T04:16:03;94769.56;;;13.25;40.20
30819;BME280;17546;42.674;23.284;2024-03-08T04:18:33;94756.41;;;13.26;40.69
30819;BME280;17546;42.674;23.284;2024-03-08T04:21:01;94780.34;;;13.46;41.17
30819;BME280;17546;42.674;23.284;2024-03-08T04:23:27;94785.69;;;13.43;40.88
30819;BME280;17546;42.674;23.284;2024-03-08T04:25:54;94771.38;;;13.11;41.69
30819;BME280;17546;42.674;23.284;2024-03-08T04:28:19;94773.22;;;12.97;41.26
30819;BME280;17546;42.674;23.284;2024-03-08T04:30:45;94781.41;;;12.73;42.10
30819;BME280;17546;42.674;23.284;2024-03-08T04:33:11;94769.59;;;12.44;41.96
30819;BME280;17546;42.674;23.284;2024-03-08T04:35:37;94766.56;;;12.42;42.09
30819;BME280;17546;42.674;23.284;2024-03-08T04:38:02;94783.47;;;12.55;41.87
30819;BME280;17546;42.674;23.284;2024-03-08T04:40:30;94773.66;;;12.37;41.78
30819;BME280;17546;42.674;23.284;2024-03-08T04:42:58;94801.94;;;12.25;42.59
30819;BME280;17546;42.674;23.284;2024-03-08T04:45:24;94796.66;;;12.27;42.62
30819;BME280;17546;42.674;23.284;2024-03-08T04:47:51;94809.00;;;11.92;43.92
30819;BME280;17546;42.674;23.284;2024-03-08T04:50:18;94799.19;;;12.13;43.24
30819;BME280;17546;42.674;23.284;2024-03-08T04:52:43;94801.41;;;11.70;44.61
30819;BME280;17546;42.674;23.284;2024-03-08T04:55:09;94805.69;;;11.65;44.67
30819;BME280;17546;42.674;23.284;2024-03-08T04:57:35;94785.44;;;11.25;45.57
30819;BME280;17546;42.674;23.284;2024-03-08T05:00:02;94804.72;;;12.13;43.97
30819;BME280;17546;42.674;23.284;2024-03-08T05:02:29;94808.22;;;11.74;44.74
30819;BME280;17546;42.674;23.284;2024-03-08T05:04:55;94816.84;;;12.22;43.86
30819;BME280;17546;42.674;23.284;2024-03-08T05:07:20;94816.31;;;12.51;43.61
30819;BME280;17546;42.674;23.284;2024-03-08T05:09:46;94782.75;;;12.38;43.58
30819;BME280;17546;42.674;23.284;2024-03-08T05:12:17;94808.97;;;12.54;44.02
30819;BME280;17546;42.674;23.284;2024-03-08T05:14:45;94821.56;;;12.77;43.28
30819;BME280;17546;42.674;23.284;2024-03-08T05:17:11;94818.78;;;12.77;43.57
30819;BME280;17546;42.674;23.284;2024-03-08T05:19:37;94814.28;;;12.57;43.82
30819;BME280;17546;42.674;23.284;2024-03-08T05:22:02;94810.69;;;12.74;43.41
30819;BME280;17546;42.674;23.284;2024-03-08T05:24:28;94815.28;;;12.66;43.28
30819;BME280;17546;42.674;23.284;2024-03-08T05:26:55;94816.06;;;12.21;43.83
30819;BME280;17546;42.674;23.284;2024-03-08T05:29:20;94828.44;;;12.14;44.09
30819;BME280;17546;42.674;23.284;2024-03-08T05:31:47;94846.09;;;12.56;43.78
30819;BME280;17546;42.674;23.284;2024-03-08T05:34:13;94851.19;;;12.18;44.39
30819;BME280;17546;42.674;23.284;2024-03-08T05:36:40;94845.88;;;12.32;44.18
30819;BME280;17546;42.674;23.284;2024-03-08T05:39:06;94843.34;;;12.00;44.46
30819;BME280;17546;42.674;23.284;2024-03-08T05:41:32;94829.97;;;12.15;44.42
30819;BME280;17546;42.674;23.284;2024-03-08T05:43:57;94862.53;;;12.04;44.74
30819;BME280;17546;42.674;23.284;2024-03-08T05:46:23;94844.59;;;12.10;44.78
30819;BME280;17546;42.674;23.284;2024-03-08T05:48:48;94859.25;;;12.39;44.82
30819;BME280;17546;42.674;23.284;2024-03-08T05:51:14;94866.81;;;12.55;44.44
30819;BME280;17546;42.674;23.284;2024-03-08T05:53:39;94864.53;;;11.92;44.62
30819;BME280;17546;42.674;23.284;2024-03-08T05:56:05;94881.69;;;11.90;45.08
30819;BME280;17546;42.674;23.284;2024-03-08T05:58:31;94873.16;;;12.11;44.50
30819;BME280;17546;42.674;23.284;2024-03-08T06:00:56;94847.44;;;11.22;46.07
30819;BME280;17546;42.674;23.284;2024-03-08T06:03:23;94861.91;;;11.54;45.50
30819;BME280;17546;42.674;23.284;2024-03-08T06:05:49;94863.06;;;11.31;45.75
30819;BME280;17546;42.674;23.284;2024-03-08T06:08:15;94857.59;;;11.48;45.79
30819;BME280;17546;42.674;23.284;2024-03-08T06:10:41;94877.19;;;11.27;46.01
30819;BME280;17546;42.674;23.284;2024-03-08T06:13:06;94890.94;;;11.70;46.40
30819;BME280;17546;42.674;23.284;2024-03-08T06:15:32;94874.13;;;11.14;46.37
30819;BME280;17546;42.674;23.284;2024-03-08T06:17:57;94882.75;;;11.27;46.66
30819;BME280;17546;42.674;23.284;2024-03-08T06:20:23;94892.97;;;11.64;45.90
30819;BME280;17546;42.674;23.284;2024-03-08T06:22:52;94900.66;;;11.32;46.81
30819;BME280;17546;42.674;23.284;2024-03-08T06:25:17;94894.13;;;10.86;47.40
30819;BME280;17546;42.674;23.284;2024-03-08T06:27:43;94870.03;;;11.04;46.99
30819;BME280;17546;42.674;23.284;2024-03-08T06:30:09;94868.63;;;10.77;47.38
30819;BME280;17546;42.674;23.284;2024-03-08T06:32:38;94888.56;;;11.35;46.82
30819;BME280;17546;42.674;23.284;2024-03-08T06:35:05;94874.47;;;11.38;46.07
30819;BME280;17546;42.674;23.284;2024-03-08T06:37:32;94887.66;;;11.61;45.98
30819;BME280;17546;42.674;23.284;2024-03-08T06:40:00;94887.88;;;11.57;46.29
30819;BME280;17546;42.674;23.284;2024-03-08T06:42:29;94900.59;;;11.86;45.70
30819;BME280;17546;42.674;23.284;2024-03-08T06:44:59;94916.84;;;12.22;45.11
30819;BME280;17546;42.674;23.284;2024-03-08T06:47:29;94892.50;;;11.83;45.48
30819;BME280;17546;42.674;23.284;2024-03-08T06:49:55;94918.34;;;12.23;45.13
30819;BME280;17546;42.674;23.284;2024-03-08T06:52:20;94917.06;;;12.07;45.20
30819;BME280;17546;42.674;23.284;2024-03-08T06:54:47;94907.97;;;12.06;45.25
30819;BME280;17546;42.674;23.284;2024-03-08T06:57:13;94922.41;;;12.33;44.86
30819;BME280;17546;42.674;23.284;2024-03-08T06:59:39;94904.22;;;12.37;44.66
30819;BME280;17546;42.674;23.284;2024-03-08T07:02:05;94901.19;;;12.35;44.75
30819;BME280;17546;42.674;23.284;2024-03-08T07:04:34;94886.47;;;11.90;45.01
30819;BME280;17546;42.674;23.284;2024-03-08T07:07:03;94921.63;;;12.15;44.96
30819;BME280;17546;42.674;23.284;2024-03-08T07:09:29;94913.56;;;12.40;44.85
30819;BME280;17546;42.674;23.284;2024-03-08T07:11:55;94921.59;;;12.10;44.36
30819;BME280;17546;42.674;23.284;2024-03-08T07:14:23;94904.69;;;12.02;44.13
30819;BME280;17546;42.674;23.284;2024-03-08T07:16:50;94908.63;;;11.78;44.80
30819;BME280;17546;42.674;23.284;2024-03-08T07:19:16;94925.44;;;12.24;44.38
30819;BME280;17546;42.674;23.284;2024-03-08T07:21:45;94907.84;;;11.72;44.58
30819;BME280;17546;42.674;23.284;2024-03-08T07:24:12;94907.88;;;11.84;44.55
30819;BME280;17546;42.674;23.284;2024-03-08T07:27:06;94929.69;;;12.13;43.69
30819;BME280;17546;42.674;23.284;2024-03-08T07:29:32;94928.94;;;12.18;44.05
30819;BME280;17546;42.674;23.284;2024-03-08T07:31:59;94926.75;;;11.68;45.09
30819;BME280;17546;42.674;23.284;2024-03-08T07:34:44;94908.56;;;11.56;44.70
30819;BME280;17546;42.674;23.284;2024-03-08T07:37:09;94942.69;;;11.19;45.90
30819;BME280;17546;42.674;23.284;2024-03-08T07:39:37;94926.91;;;12.02;44.11
30819;BME280;17546;42.674;23.284;2024-03-08T07:42:04;94912.25;;;11.96;44.45
30819;BME280;17546;42.674;23.284;2024-03-08T07:44:29;94922.16;;;12.31;43.92
30819;BME280;17546;42.674;23.284;2024-03-08T07:46:56;94937.78;;;12.56;43.59
30819;BME280;17546;42.674;23.284;2024-03-08T07:49:21;94916.84;;;12.44;44.26
30819;BME280;17546;42.674;23.284;2024-03-08T07:51:47;94915.81;;;12.47;43.48
30819;BME280;17546;42.674;23.284;2024-03-08T07:54:14;94938.28;;;13.00;43.09
30819;BME280;17546;42.674;23.284;2024-03-08T07:56:40;94920.31;;;13.07;42.93
30819;BME280;17546;42.674;23.284;2024-03-08T07:59:05;94940.81;;;12.36;44.24
30819;BME280;17546;42.674;23.284;2024-03-08T08:01:33;94923.88;;;12.00;44.70
30819;BME280;17546;42.674;23.284;2024-03-08T08:03:59;94946.63;;;12.27;44.45
30819;BME280;17546;42.674;23.284;2024-03-08T08:06:26;94932.00;;;12.37;44.00
30819;BME280;17546;42.674;23.284;2024-03-08T08:08:52;94943.84;;;12.32;43.99
30819;BME280;17546;42.674;23.284;2024-03-08T08:11:17;94933.97;;;12.14;43.99
30819;BME280;17546;42.674;23.284;2024-03-08T08:13:43;94938.53;;;11.46;45.76
30819;BME280;17546;42.674;23.284;2024-03-08T08:16:09;94920.25;;;10.74;46.62
30819;BME280;17546;42.674;23.284;2024-03-08T08:18:35;94931.56;;;11.62;45.16
30819;BME280;17546;42.674;23.284;2024-03-08T08:21:02;94920.31;;;11.94;44.59
30819;BME280;17546;42.674;23.284;2024-03-08T08:23:27;94925.44;;;12.24;44.27
30819;BME280;17546;42.674;23.284;2024-03-08T08:25:53;94921.88;;;12.06;44.79
30819;BME280;17546;42.674;23.284;2024-03-08T08:28:20;94935.78;;;12.57;43.90
30819;BME280;17546;42.674;23.284;2024-03-08T08:30:46;94921.91;;;12.57;43.79
30819;BME280;17546;42.674;23.284;2024-03-08T08:33:11;94947.41;;;12.61;43.83
30819;BME280;17546;42.674;23.284;2024-03-08T08:35:37;94942.63;;;12.50;44.37
30819;BME280;17546;42.674;23.284;2024-03-08T08:38:06;94919.56;;;13.00;43.75
30819;BME280;17546;42.674;23.284;2024-03-08T08:40:35;94935.50;;;12.32;44.46
30819;BME280;17546;42.674;23.284;2024-03-08T08:43:02;94917.78;;;11.96;45.12
30819;BME280;17546;42.674;23.284;2024-03-08T08:45:30;94937.06;;;12.73;43.50
30819;BME280;17546;42.674;23.284;2024-03-08T08:47:56;94907.00;;;12.37;44.18
30819;BME280;17546;42.674;23.284;2024-03-08T08:50:22;94923.91;;;12.23;44.81
30819;BME280;17546;42.674;23.284;2024-03-08T08:52:51;94896.63;;;12.15;44.16
30819;BME280;17546;42.674;23.284;2024-03-08T08:55:18;94912.50;;;12.04;44.86
30819;BME280;17546;42.674;23.284;2024-03-08T08:57:46;94915.31;;;12.54;44.04
30819;BME280;17546;42.674;23.284;2024-03-08T09:00:13;94900.13;;;12.89;43.11
30819;BME280;17546;42.674;23.284;2024-03-08T09:02:41;94907.63;;;13.39;41.65
30819;BME280;17546;42.674;23.284;2024-03-08T09:05:06;94932.47;;;13.03;41.80
30819;BME280;17546;42.674;23.284;2024-03-08T09:07:35;94914.97;;;13.31;40.72
30819;BME280;17546;42.674;23.284;2024-03-08T09:10:00;94931.06;;;13.61;41.15
30819;BME280;17546;42.674;23.284;2024-03-08T09:12:26;94917.81;;;12.97;41.21
30819;BME280;17546;42.674;23.284;2024-03-08T09:14:52;94898.88;;;12.11;42.72
30819;BME280;17546;42.674;23.284;2024-03-08T09:17:17;94907.19;;;13.01;42.16
30819;BME280;17546;42.674;23.284;2024-03-08T09:19:46;94924.50;;;13.53;40.72
30819;BME280;17546;42.674;23.284;2024-03-08T09:22:13;94934.19;;;13.40;41.52
30819;BME280;17546;42.674;23.284;2024-03-08T09:24:38;94922.22;;;13.62;41.28
30819;BME280;17546;42.674;23.284;2024-03-08T09:27:04;94924.34;;;13.87;40.68
30819;BME280;17546;42.674;23.284;2024-03-08T09:29:29;94893.16;;;13.52;40.02
30819;BME280;17546;42.674;23.284;2024-03-08T09:31:55;94906.19;;;12.03;42.03
30819;BME280;17546;42.674;23.284;2024-03-08T09:34:21;94903.34;;;13.21;40.55
30819;BME280;17546;42.674;23.284;2024-03-08T09:36:46;94921.25;;;14.01;40.19
30819;BME280;17546;42.674;23.284;2024-03-08T09:39:12;94926.16;;;14.25;39.41
30819;BME280;17546;42.674;23.284;2024-03-08T09:41:43;94897.41;;;14.06;40.06
30819;BME280;17546;42.674;23.284;2024-03-08T09:44:09;94921.16;;;14.18;38.97
30819;BME280;17546;42.674;23.284;2024-03-08T09:46:35;94913.75;;;14.62;38.61
30819;BME280;17546;42.674;23.284;2024-03-08T09:49:01;94895.91;;;14.41;37.97
30819;BME280;17546;42.674;23.284;2024-03-08T09:51:33;94911.75;;;14.87;36.96
30819;BME280;17546;42.674;23.284;2024-03-08T09:54:01;94910.59;;;14.77;37.30
30819;BME280;17546;42.674;23.284;2024-03-08T09:56:32;94908.22;;;14.21;38.02
30819;BME280;17546;42.674;23.284;2024-03-08T09:58:58;94910.97;;;14.62;37.44
30819;BME280;17546;42.674;23.284;2024-03-08T10:01:39;94889.78;;;14.78;38.06
30819;BME280;17546;42.674;23.284;2024-03-08T10:04:04;94920.34;;;15.20;37.05
30819;BME280;17546;42.674;23.284;2024-03-08T10:06:30;94898.69;;;14.05;38.24
30819;BME280;17546;42.674;23.284;2024-03-08T10:08:56;94916.09;;;13.70;38.63
30819;BME280;17546;42.674;23.284;2024-03-08T10:11:22;94891.97;;;13.89;38.13
30819;BME280;17546;42.674;23.284;2024-03-08T10:13:49;94918.69;;;14.45;37.34
30819;BME280;17546;42.674;23.284;2024-03-08T10:16:15;94925.75;;;13.63;38.51
30819;BME280;17546;42.674;23.284;2024-03-08T10:18:42;94922.97;;;13.57;39.31
30819;BME280;17546;42.674;23.284;2024-03-08T10:21:08;94903.94;;;14.20;38.79
30819;BME280;17546;42.674;23.284;2024-03-08T10:23:40;94888.59;;;13.55;39.35
30819;BME280;17546;42.674;23.284;2024-03-08T10:26:17;94916.31;;;14.24;38.19
30819;BME280;17546;42.674;23.284;2024-03-08T10:28:46;94918.34;;;14.54;37.58
30819;BME280;17546;42.674;23.284;2024-03-08T10:31:16;94894.13;;;14.43;38.73
30819;BME280;17546;42.674;23.284;2024-03-08T10:33:42;94908.00;;;13.66;38.77
30819;BME280;17546;42.674;23.284;2024-03-08T10:36:08;94894.28;;;13.79;38.66
30819;BME280;17546;42.674;23.284;2024-03-08T10:38:38;94872.91;;;13.52;38.85
30819;BME280;17546;42.674;23.284;2024-03-08T10:41:08;94909.44;;;14.25;37.79
30819;BME280;17546;42.674;23.284;2024-03-08T10:49:07;94874.09;;;13.68;37.69
30819;BME280;17546;42.674;23.284;2024-03-08T10:51:34;94898.59;;;14.58;36.37
30819;BME280;17546;42.674;23.284;2024-03-08T10:54:01;94868.84;;;13.53;37.53
30819;BME280;17546;42.674;23.284;2024-03-08T10:56:28;94896.97;;;14.38;36.86
30819;BME280;17546;42.674;23.284;2024-03-08T10:58:54;94865.91;;;14.22;36.39
30819;BME280;17546;42.674;23.284;2024-03-08T11:01:21;94865.69;;;13.79;36.26
30819;BME280;17546;42.674;23.284;2024-03-08T11:03:47;94889.63;;;14.71;35.72
30819;BME280;17546;42.674;23.284;2024-03-08T11:06:29;94883.38;;;15.14;35.79
30819;BME280;17546;42.674;23.284;2024-03-08T11:08:55;94873.34;;;14.75;35.94
30819;BME280;17546;42.674;23.284;2024-03-08T11:11:25;94873.94;;;14.92;35.76
30819;BME280;17546;42.674;23.284;2024-03-08T11:13:56;94850.75;;;14.48;36.21
30819;BME280;17546;42.674;23.284;2024-03-08T11:16:37;94856.72;;;14.63;35.96
30819;BME280;17546;42.674;23.284;2024-03-08T11:21:36;94852.25;;;15.47;35.09
30819;BME280;17546;42.674;23.284;2024-03-08T11:24:12;94850.91;;;15.54;34.35
30819;BME280;17546;42.674;23.284;2024-03-08T11:26:39;94866.94;;;15.91;34.72
30819;BME280;17546;42.674;23.284;2024-03-08T11:32:19;94858.13;;;15.00;36.56
30819;BME280;17546;42.674;23.284;2024-03-08T11:34:48;94849.78;;;15.00;37.13
30819;BME280;17546;42.674;23.284;2024-03-08T11:37:20;94819.22;;;14.89;36.46
30819;BME280;17546;42.674;23.284;2024-03-08T11:39:50;94830.44;;;15.27;36.36
30819;BME280;17546;42.674;23.284;2024-03-08T11:42:16;94836.44;;;15.94;35.49
30819;BME280;17546;42.674;23.284;2024-03-08T11:44:48;94833.59;;;15.18;35.66
30819;BME280;17546;42.674;23.284;2024-03-08T11:47:15;94850.81;;;15.84;35.05
30819;BME280;17546;42.674;23.284;2024-03-08T11:49:41;94827.81;;;15.54;35.22
30819;BME280;17546;42.674;23.284;2024-03-08T11:52:13;94843.94;;;15.23;35.16
30819;BME280;17546;42.674;23.284;2024-03-08T11:54:40;94848.72;;;16.23;34.11
30819;BME280;17546;42.674;23.284;2024-03-08T11:57:05;94833.13;;;16.14;34.03
30819;BME280;17546;42.674;23.284;2024-03-08T11:59:31;94833.66;;;16.45;34.13
30819;BME280;17546;42.674;23.284;2024-03-08T12:02:07;94823.19;;;15.18;34.86
30819;BME280;17546;42.674;23.284;2024-03-08T12:04:36;94818.16;;;15.36;33.96
30819;BME280;17546;42.674;23.284;2024-03-08T12:07:02;94852.00;;;16.08;33.65
30819;BME280;17546;42.674;23.284;2024-03-08T12:09:29;94835.91;;;16.14;33.37
30819;BME280;17546;42.674;23.284;2024-03-08T12:11:54;94834.47;;;16.40;33.13
30819;BME280;17546;42.674;23.284;2024-03-08T12:14:20;94833.91;;;15.77;33.58
30819;BME280;17546;42.674;23.284;2024-03-08T12:16:46;94845.34;;;16.11;33.65
30819;BME280;17546;42.674;23.284;2024-03-08T12:19:13;94845.28;;;15.98;33.96
30819;BME280;17546;42.674;23.284;2024-03-08T12:21:39;94834.09;;;15.60;34.71
30819;BME280;17546;42.674;23.284;2024-03-08T12:24:15;94841.78;;;16.29;34.01
30819;BME280;17546;42.674;23.284;2024-03-08T12:26:42;94823.59;;;16.04;34.10
30819;BME280;17546;42.674;23.284;2024-03-08T12:29:27;94831.75;;;16.21;33.92
30819;BME280;17546;42.674;23.284;2024-03-08T12:31:58;94820.81;;;15.85;33.46
30819;BME280;17546;42.674;23.284;2024-03-08T12:34:26;94834.78;;;16.04;33.56
30819;BME280;17546;42.674;23.284;2024-03-08T12:36:53;94830.81;;;16.31;34.09
30819;BME280;17546;42.674;23.284;2024-03-08T12:39:21;94807.38;;;16.35;33.52
30819;BME280;17546;42.674;23.284;2024-03-08T12:41:56;94827.41;;;15.87;34.51
30819;BME280;17546;42.674;23.284;2024-03-08T12:44:27;94801.19;;;15.90;34.26
30819;BME280;17546;42.674;23.284;2024-03-08T12:46:53;94819.69;;;15.37;35.32
30819;BME280;17546;42.674;23.284;2024-03-08T12:49:20;94798.16;;;14.88;36.45
30819;BME280;17546;42.674;23.284;2024-03-08T12:51:48;94813.50;;;15.63;35.24
30819;BME280;17546;42.674;23.284;2024-03-08T12:54:13;94801.31;;;14.79;36.46
30819;BME280;17546;42.674;23.284;2024-03-08T12:56:39;94792.91;;;15.28;35.25
30819;BME280;17546;42.674;23.284;2024-03-08T12:59:06;94796.13;;;15.89;34.75
30819;BME280;17546;42.674;23.284;2024-03-08T13:01:35;94779.25;;;14.81;36.31